Time;durP1;ratioP1;P1;durP2;ratioP2;P2;SDS_P1;SDS_P2;PMS_P1;PMS_P2;Temp;Humidity;BMP_temperature;BMP_pressure;BME280_temperature;BME280_humidity;BME280_pressure;Samples;Min_cycle;Max_cycle;Signal;HPM_P1;HPM_P2
2024/01/16 00:01:43;;;;;;;;;;;;;;;15.61;39.18;99227.31;4961639;28;1061;-48
2024/01/16 00:04:09;;;;;;;;;;;;;;;16.42;37.73;99219.75;4961681;28;1028;-47
2024/01/16 00:06:38;;;;;;;;;;;;;;;16.78;36.27;99216.31;4956300;28;1161;-47
2024/01/16 00:09:05;;;;;;;;;;;;;;;15.66;39.03;99225.91;4955098;29;1026;-47
2024/01/16 00:11:30;;;;;;;;;;;;;;;15.22;40.07;99231.72;4961820;28;1128;-48
2024/01/16 00:13:56;;;;;;;;;;;;;;;15.12;40.19;99231.72;4961420;28;1212;-49
2024/01/16 00:16:22;;;;;;;;;;;;;;;14.90;40.15;99224.88;4961522;28;1974;-48
2024/01/16 00:18:47;;;;;;;;;;;;;;;15.37;39.99;99226.81;4955781;28;1120;-50
2024/01/16 00:21:13;;;;;;;;;;;;;;;17.15;35.90;99216.34;4961594;28;1132;-50
2024/01/16 00:23:38;;;;;;;;;;;;;;;15.45;39.21;99226.09;4961252;28;1085;-50
2024/01/16 00:26:04;;;;;;;;;;;;;;;15.60;39.36;99226.47;4961256;28;1165;-47
2024/01/16 00:28:31;;;;;;;;;;;;;;;17.21;35.80;99226.34;4961355;28;1101;-53
2024/01/16 00:30:56;;;;;;;;;;;;;;;15.72;38.73;99226.31;4949054;29;1066;-47
2024/01/16 00:33:22;;;;;;;;;;;;;;;15.41;39.48;99222.06;4961337;28;1192;-49
2024/01/16 00:35:47;;;;;;;;;;;;;;;17.41;35.64;99212.84;4961240;28;1979;-47
2024/01/16 00:38:13;;;;;;;;;;;;;;;15.74;38.65;99209.28;4960741;28;1029;-46
2024/01/16 00:40:39;;;;;;;;;;;;;;;15.23;39.71;99209.53;4961126;28;1157;-45
2024/01/16 00:43:04;;;;;;;;;;;;;;;17.30;36.06;99211.28;4954452;28;1149;-49
2024/01/16 00:45:30;;;;;;;;;;;;;;;16.71;36.67;99215.25;4960807;28;1133;-49
2024/01/16 00:47:55;;;;;;;;;;;;;;;15.69;39.16;99208.03;4960525;28;1204;-50
2024/01/16 00:50:21;;;;;;;;;;;;;;;16.09;38.84;99203.44;4960775;28;1215;-47
2024/01/16 00:52:47;;;;;;;;;;;;;;;17.42;35.54;99188.78;4960644;28;1117;-51
2024/01/16 00:55:13;;;;;;;;;;;;;;;15.86;38.70;99188.75;4959140;28;1137;-47
2024/01/16 00:57:38;;;;;;;;;;;;;;;15.46;39.43;99185.38;4960630;28;1981;-45
2024/01/16 01:00:07;;;;;;;;;;;;;;;15.18;39.94;99180.00;4960482;28;1077;-48
2024/01/16 01:02:33;;;;;;;;;;;;;;;16.86;36.93;99175.72;4960551;28;1180;-51
2024/01/16 01:04:58;;;;;;;;;;;;;;;16.03;38.24;99165.09;4960857;28;937;-48
2024/01/16 01:07:25;;;;;;;;;;;;;;;15.51;39.53;99166.41;4952295;28;1057;-50
2024/01/16 01:09:51;;;;;;;;;;;;;;;17.29;35.73;99162.63;4960557;29;1077;-48
2024/01/16 01:12:17;;;;;;;;;;;;;;;15.72;38.85;99152.06;4960142;28;1137;-47
2024/01/16 01:14:42;;;;;;;;;;;;;;;15.32;39.59;99160.16;4960642;28;1200;-46
2024/01/16 01:17:08;;;;;;;;;;;;;;;15.19;39.87;99155.19;4960320;28;1910;-46
2024/01/16 01:19:34;;;;;;;;;;;;;;;15.78;39.49;99156.81;4957539;28;1017;-45
2024/01/16 01:21:59;;;;;;;;;;;;;;;17.20;36.20;99151.09;4960116;28;1093;-45
2024/01/16 01:24:25;;;;;;;;;;;;;;;15.65;38.91;99151.81;4960177;28;1013;-45
2024/01/16 01:26:50;;;;;;;;;;;;;;;15.78;39.07;99154.16;4960483;28;1141;-48
2024/01/16 01:29:17;;;;;;;;;;;;;;;17.20;36.12;99152.94;4960531;28;1508;-48
2024/01/16 01:31:45;;;;;;;;;;;;;;;15.67;38.89;99140.09;4950894;28;1128;-47
2024/01/16 01:34:10;;;;;;;;;;;;;;;15.24;39.84;99142.34;4947518;29;1069;-48
2024/01/16 01:36:36;;;;;;;;;;;;;;;17.30;36.20;99143.00;4959754;28;1918;-46
2024/01/16 01:39:03;;;;;;;;;;;;;;;15.90;38.81;99131.75;4960315;28;1104;-47
2024/01/16 01:41:28;;;;;;;;;;;;;;;15.48;39.65;99124.28;4959707;28;1135;-51
2024/01/16 01:43:54;;;;;;;;;;;;;;;15.11;40.38;99137.34;4956319;28;1112;-46
2024/01/16 01:46:19;;;;;;;;;;;;;;;15.50;39.83;99132.91;4959615;28;1056;-46
2024/01/16 01:48:46;;;;;;;;;;;;;;;17.28;36.31;99128.22;4959488;28;1007;-48
2024/01/16 01:51:12;;;;;;;;;;;;;;;15.60;39.42;99132.91;4958469;29;1212;-48
2024/01/16 01:53:38;;;;;;;;;;;;;;;15.19;40.16;99134.00;4959712;28;1021;-42
2024/01/16 01:56:05;;;;;;;;;;;;;;;16.03;38.88;99128.78;4948657;28;1902;-48
2024/01/16 01:58:31;;;;;;;;;;;;;;;17.00;36.44;99134.47;4959292;29;1180;-45
2024/01/16 02:00:57;;;;;;;;;;;;;;;15.60;39.25;99132.91;4958048;28;1128;-49
2024/01/16 02:03:22;;;;;;;;;;;;;;;15.28;40.16;99135.75;4959470;28;1140;-46
2024/01/16 02:05:48;;;;;;;;;;;;;;;17.17;36.45;99129.28;4958436;29;1131;-49
2024/01/16 02:08:13;;;;;;;;;;;;;;;15.60;39.32;99125.75;4954003;29;1145;-46
2024/01/16 02:10:39;;;;;;;;;;;;;;;15.26;40.20;99134.25;4958875;28;1100;-43
2024/01/16 02:13:05;;;;;;;;;;;;;;;17.40;36.22;99136.78;4958083;29;1036;-47
2024/01/16 02:15:31;;;;;;;;;;;;;;;16.03;38.59;99127.97;4959312;28;1903;-46
2024/01/16 02:17:57;;;;;;;;;;;;;;;15.45;39.98;99125.41;4958980;28;1092;-46
2024/01/16 02:20:22;;;;;;;;;;;;;;;15.12;40.30;99125.78;4948020;28;1049;-45
2024/01/16 02:22:48;;;;;;;;;;;;;;;16.15;38.75;99132.06;4958711;29;1125;-49
2024/01/16 02:25:14;;;;;;;;;;;;;;;17.20;36.34;99129.81;4958118;29;1053;-43
2024/01/16 02:27:39;;;;;;;;;;;;;;;15.70;38.95;99132.84;4958976;28;1204;-49
2024/01/16 02:30:06;;;;;;;;;;;;;;;14.46;40.16;98993.25;4958698;28;1060;-49
2024/01/16 02:32:32;;;;;;;;;;;;;;;15.09;40.55;99139.31;4953753;28;1200;-46
2024/01/16 02:34:58;;;;;;;;;;;;;;;14.84;40.61;99124.84;4959042;28;1164;-49
2024/01/16 02:37:24;;;;;;;;;;;;;;;16.70;37.51;99123.31;4958569;28;1902;-46
2024/01/16 02:39:49;;;;;;;;;;;;;;;16.91;36.75;99122.13;4958811;28;1147;-51
2024/01/16 02:42:15;;;;;;;;;;;;;;;15.58;39.29;99125.06;4955397;28;1073;-47
2024/01/16 02:44:41;;;;;;;;;;;;;;;16.35;38.36;99123.16;4951451;29;1328;-45
2024/01/16 02:47:07;;;;;;;;;;;;;;;16.71;37.11;99109.03;4958832;28;1109;-46
2024/01/16 02:49:33;;;;;;;;;;;;;;;15.48;39.62;99116.34;4958562;28;1064;-43
2024/01/16 02:51:58;;;;;;;;;;;;;;;16.43;38.11;99128.56;4958345;28;1199;-46
2024/01/16 02:54:24;;;;;;;;;;;;;;;16.88;36.75;99125.94;4955173;28;1056;-46
2024/01/16 02:56:49;;;;;;;;;;;;;;;15.70;39.05;99119.59;4951243;29;1910;-46
2024/01/16 02:59:15;;;;;;;;;;;;;;;15.21;40.16;99126.75;4958668;28;1293;-48
2024/01/16 03:01:41;;;;;;;;;;;;;;;16.89;37.48;99130.25;4958320;28;1041;-42
2024/01/16 03:04:06;;;;;;;;;;;;;;;16.66;37.33;99120.13;4958601;28;1045;-45
2024/01/16 03:06:32;;;;;;;;;;;;;;;15.62;39.63;99121.16;4958402;28;1112;-46
2024/01/16 03:08:58;;;;;;;;;;;;;;;15.33;39.93;99124.72;4957722;28;975;-48
2024/01/16 03:11:23;;;;;;;;;;;;;;;16.60;38.02;99132.16;4957897;28;1006;-47
2024/01/16 03:13:55;;;;;;;;;;;;;;;17.28;36.27;99133.53;4958578;28;1100;-50
2024/01/16 03:16:20;;;;;;;;;;;;;;;15.76;39.08;99125.16;4958194;28;1964;-44
2024/01/16 03:18:47;;;;;;;;;;;;;;;15.37;39.88;99120.81;4958363;28;1107;-46
2024/01/16 03:21:13;;;;;;;;;;;;;;;15.04;40.69;99125.66;4950854;28;870;-43
2024/01/16 03:23:38;;;;;;;;;;;;;;;16.69;37.77;99129.59;4957995;28;1278;-48
2024/01/16 03:26:04;;;;;;;;;;;;;;;16.62;37.52;99132.84;4958307;28;1181;-47
2024/01/16 03:28:29;;;;;;;;;;;;;;;15.54;39.73;99131.66;4958348;28;1028;-47
2024/01/16 03:30:55;;;;;;;;;;;;;;;16.68;37.92;99135.91;4958419;28;1065;-48
2024/01/16 03:33:21;;;;;;;;;;;;;;;16.57;37.34;99132.47;4957072;28;923;-52
2024/01/16 03:35:47;;;;;;;;;;;;;;;15.61;39.58;99138.06;4957918;28;1973;-45
2024/01/16 03:38:13;;;;;;;;;;;;;;;15.27;40.42;99142.06;4958298;28;1208;-49
2024/01/16 03:40:38;;;;;;;;;;;;;;;17.50;36.05;99148.94;4957936;28;1049;-46
2024/01/16 03:43:05;;;;;;;;;;;;;;;15.94;38.96;99153.53;4958309;28;1108;-43
2024/01/16 03:45:30;;;;;;;;;;;;;;;15.37;40.05;99162.38;4950080;28;1015;-48
2024/01/16 03:47:56;;;;;;;;;;;;;;;15.20;40.55;99159.50;4957807;28;1089;-48
2024/01/16 03:50:22;;;;;;;;;;;;;;;17.10;36.89;99161.81;4958271;28;1124;-46
2024/01/16 03:52:47;;;;;;;;;;;;;;;15.90;39.06;99166.25;4958170;28;1212;-45
2024/01/16 03:55:13;;;;;;;;;;;;;;;15.30;40.43;99164.75;4957443;28;1025;-45
2024/01/16 03:57:38;;;;;;;;;;;;;;;17.22;36.71;99180.16;4955175;28;1907;-47
2024/01/16 04:00:05;;;;;;;;;;;;;;;15.81;39.19;99180.38;4957342;28;1092;-46
2024/01/16 04:02:31;;;;;;;;;;;;;;;15.39;40.05;99186.94;4957837;28;1057;-46
2024/01/16 04:04:56;;;;;;;;;;;;;;;15.13;40.38;99196.28;4957672;28;1069;-47
2024/01/16 04:07:26;;;;;;;;;;;;;;;16.46;38.26;99197.25;4957805;28;1132;-46
2024/01/16 04:09:52;;;;;;;;;;;;;;;16.04;38.36;99201.25;4948284;28;1215;-45
2024/01/16 04:12:17;;;;;;;;;;;;;;;15.28;40.26;99209.13;4958268;28;1169;-46
2024/01/16 04:14:43;;;;;;;;;;;;;;;15.03;40.83;99214.03;4957774;28;1177;-45
2024/01/16 04:17:08;;;;;;;;;;;;;;;16.08;38.92;99217.72;4957750;28;1898;-50
2024/01/16 04:19:34;;;;;;;;;;;;;;;16.86;36.93;99224.38;4957743;28;1037;-45
2024/01/16 04:22:00;;;;;;;;;;;;;;;15.53;39.62;99230.69;4952774;28;955;-46
2024/01/16 04:24:27;;;;;;;;;;;;;;;15.08;40.83;99232.97;4960163;28;1157;-42
2024/01/16 04:26:52;;;;;;;;;;;;;;;14.91;40.76;99240.63;4960979;28;1093;-42
2024/01/16 04:29:18;;;;;;;;;;;;;;;16.73;38.03;99242.50;4961431;28;1054;-44
2024/01/16 04:31:43;;;;;;;;;;;;;;;15.94;39.18;99250.81;4961013;28;1095;-47
2024/01/16 04:34:09;;;;;;;;;;;;;;;15.14;40.76;99258.06;4948692;28;1160;-45
2024/01/16 04:36:35;;;;;;;;;;;;;;;16.86;37.71;99273.97;4960908;28;1902;-47
2024/01/16 04:39:00;;;;;;;;;;;;;;;16.47;37.63;99275.03;4960967;28;1140;-47
2024/01/16 04:41:26;;;;;;;;;;;;;;;15.34;40.19;99277.44;4961503;28;1104;-43
2024/01/16 04:43:51;;;;;;;;;;;;;;;15.16;40.80;99282.59;4960332;28;1161;-42
2024/01/16 04:46:17;;;;;;;;;;;;;;;14.95;40.72;99286.22;4954143;28;939;-44
2024/01/16 04:48:42;;;;;;;;;;;;;;;16.91;37.39;99297.44;4960870;28;1005;-46
2024/01/16 04:51:08;;;;;;;;;;;;;;;16.27;38.07;99301.69;4960304;28;1121;-44
2024/01/16 04:53:34;;;;;;;;;;;;;;;15.36;40.37;99304.66;4955805;28;1203;-51
2024/01/16 04:55:59;;;;;;;;;;;;;;;16.31;38.71;99310.19;4960649;28;1973;-51
2024/01/16 04:58:25;;;;;;;;;;;;;;;16.71;37.22;99313.50;4959670;28;1222;-50
2024/01/16 05:00:50;;;;;;;;;;;;;;;15.61;39.71;99307.69;4960420;28;1264;-54
2024/01/16 05:03:16;;;;;;;;;;;;;;;15.21;40.35;99314.81;4960547;28;995;-53
2024/01/16 05:05:42;;;;;;;;;;;;;;;17.04;37.43;99316.50;4951978;28;1104;-53
2024/01/16 05:08:07;;;;;;;;;;;;;;;16.99;36.91;99316.09;4955691;29;1179;-50
2024/01/16 05:10:33;;;;;;;;;;;;;;;15.70;39.25;99327.19;4955948;28;1202;-52
2024/01/16 05:12:59;;;;;;;;;;;;;;;15.34;40.54;99341.03;4954894;28;1133;-53
2024/01/16 05:15:24;;;;;;;;;;;;;;;17.52;36.38;99336.75;4956166;28;1267;-54
2024/01/16 05:17:50;;;;;;;;;;;;;;;16.00;38.94;99348.38;4948120;29;1914;-54
2024/01/16 05:20:16;;;;;;;;;;;;;;;15.66;40.15;99358.44;4960351;28;1163;-53
2024/01/16 05:22:41;;;;;;;;;;;;;;;16.99;37.08;99355.97;4959958;28;960;-53
2024/01/16 05:25:07;;;;;;;;;;;;;;;16.50;37.85;99365.84;4960334;28;1145;-50
2024/01/16 05:27:33;;;;;;;;;;;;;;;16.21;38.49;99369.44;4949752;28;1156;-52
2024/01/16 05:29:59;;;;;;;;;;;;;;;15.99;39.09;99374.09;4958227;29;1120;-51
2024/01/16 05:32:26;;;;;;;;;;;;;;;16.21;38.29;99379.22;4959837;28;1020;-49
2024/01/16 05:34:52;;;;;;;;;;;;;;;17.57;35.82;99376.97;4945765;28;998;-52
2024/01/16 05:37:17;;;;;;;;;;;;;;;16.71;37.15;99386.03;4960079;28;1910;-52
2024/01/16 05:39:43;;;;;;;;;;;;;;;16.19;38.12;99397.09;4959945;28;1081;-49
2024/01/16 05:42:09;;;;;;;;;;;;;;;16.86;37.27;99404.13;4960270;28;1136;-48
2024/01/16 05:44:34;;;;;;;;;;;;;;;17.42;35.92;99400.59;4958834;28;1129;-53
2024/01/16 05:47:00;;;;;;;;;;;;;;;16.52;37.50;99411.66;4950473;29;1155;-54
2024/01/16 05:49:25;;;;;;;;;;;;;;;16.13;38.31;99425.03;4959846;28;1112;-52
2024/01/16 05:51:51;;;;;;;;;;;;;;;16.93;36.87;99426.47;4954200;28;1227;-48
2024/01/16 05:54:17;;;;;;;;;;;;;;;17.62;35.46;99434.03;4957561;28;1302;-51
2024/01/16 05:56:43;;;;;;;;;;;;;;;16.69;37.37;99438.44;4953482;28;2421;-50
2024/01/16 05:59:08;;;;;;;;;;;;;;;16.25;37.98;99436.31;4958159;28;1138;-53
2024/01/16 06:01:34;;;;;;;;;;;;;;;17.12;36.85;99438.84;4946667;29;1200;-49
2024/01/16 06:03:59;;;;;;;;;;;;;;;17.57;35.64;99446.94;4959420;28;1068;-51
2024/01/16 06:06:25;;;;;;;;;;;;;;;16.63;37.60;99444.34;4957466;28;1152;-54
2024/01/16 06:08:51;;;;;;;;;;;;;;;16.23;38.19;99455.03;4950792;29;1153;-47
2024/01/16 06:11:16;;;;;;;;;;;;;;;17.07;36.60;99458.81;4957607;29;1280;-58
2024/01/16 06:13:42;;;;;;;;;;;;;;;17.60;35.47;99459.94;4948338;28;904;-53
2024/01/16 06:16:10;;;;;;;;;;;;;;;16.96;36.82;99474.00;4959037;28;1898;-57
2024/01/16 06:18:36;;;;;;;;;;;;;;;16.35;38.20;99479.59;4943753;29;1291;-48
2024/01/16 06:21:02;;;;;;;;;;;;;;;16.59;37.75;99491.56;4951063;28;1092;-51
2024/01/16 06:23:27;;;;;;;;;;;;;;;17.82;35.37;99494.22;4957185;29;1256;-52
2024/01/16 06:25:53;;;;;;;;;;;;;;;16.88;36.81;99498.59;4947382;28;1123;-52
2024/01/16 06:28:18;;;;;;;;;;;;;;;16.36;38.20;99513.13;4956977;29;1214;-52
2024/01/16 06:30:44;;;;;;;;;;;;;;;16.94;37.27;99521.09;4952390;28;1030;-50
2024/01/16 06:33:09;;;;;;;;;;;;;;;17.73;35.52;99523.41;4950628;28;1198;-53
2024/01/16 06:35:35;;;;;;;;;;;;;;;16.78;37.29;99513.75;4948822;28;1342;-50
2024/01/16 06:38:01;;;;;;;;;;;;;;;16.31;38.06;99536.59;4958583;28;1922;-50
2024/01/16 06:40:27;;;;;;;;;;;;;;;16.88;37.34;99538.44;4957814;28;1287;-53
2024/01/16 06:42:52;;;;;;;;;;;;;;;17.15;35.05;99411.13;4958383;28;1167;-51
2024/01/16 06:45:19;;;;;;;;;;;;;;;16.91;36.78;99541.81;4947871;28;1134;-54
2024/01/16 06:47:44;;;;;;;;;;;;;;;16.42;38.11;99553.34;4957801;28;1122;-49
2024/01/16 06:50:10;;;;;;;;;;;;;;;16.08;38.78;99555.44;4958260;28;1072;-55
2024/01/16 06:52:35;;;;;;;;;;;;;;;17.20;36.71;99575.47;4958580;28;1111;-50
2024/01/16 06:55:01;;;;;;;;;;;;;;;17.44;35.65;99588.22;4958580;28;1064;-53
2024/01/16 06:57:27;;;;;;;;;;;;;;;16.63;37.55;99587.72;4954628;28;1914;-54
2024/01/16 06:59:53;;;;;;;;;;;;;;;16.13;38.66;99598.31;4955877;29;1018;-54
2024/01/16 07:02:19;;;;;;;;;;;;;;;16.82;37.37;99608.09;4958506;28;1458;-49
2024/01/16 07:04:44;;;;;;;;;;;;;;;17.65;35.59;99621.72;4958016;28;1052;-52
2024/01/16 07:07:10;;;;;;;;;;;;;;;16.71;37.39;99626.84;4958458;28;1112;-51
2024/01/16 07:09:35;;;;;;;;;;;;;;;16.28;38.08;99630.59;4958057;28;1068;-52
2024/01/16 07:12:01;;;;;;;;;;;;;;;17.26;36.34;99633.34;4958286;28;1099;-52
2024/01/16 07:14:28;;;;;;;;;;;;;;;17.59;35.81;99633.78;4957959;28;1139;-53
2024/01/16 07:16:53;;;;;;;;;;;;;;;16.70;37.36;99652.53;4947840;28;2001;-54
2024/01/16 07:19:19;;;;;;;;;;;;;;;16.34;38.14;99649.59;4943813;29;1096;-52
2024/01/16 07:21:44;;;;;;;;;;;;;;;17.15;36.70;99652.94;4954286;28;1128;-54
2024/01/16 07:24:10;;;;;;;;;;;;;;;17.69;35.49;99643.53;4956514;29;1070;-54
2024/01/16 07:26:35;;;;;;;;;;;;;;;16.74;37.44;99653.09;4958370;28;1063;-53
2024/01/16 07:29:01;;;;;;;;;;;;;;;16.31;38.13;99668.44;4957343;28;1041;-50
2024/01/16 07:31:27;;;;;;;;;;;;;;;16.60;37.64;99672.97;4946672;29;1529;-54
2024/01/16 07:33:52;;;;;;;;;;;;;;;17.88;35.25;99679.88;4954858;28;1162;-52
2024/01/16 07:36:18;;;;;;;;;;;;;;;16.92;37.08;99695.75;4958358;28;1906;-53
2024/01/16 07:38:43;;;;;;;;;;;;;;;16.39;38.02;99695.16;4958175;28;1096;-51
2024/01/16 07:41:09;;;;;;;;;;;;;;;16.13;38.67;99701.78;4948070;28;1049;-53
2024/01/16 07:43:35;;;;;;;;;;;;;;;17.47;36.01;99726.19;4955213;28;1425;-53
2024/01/16 07:46:01;;;;;;;;;;;;;;;17.28;36.26;99740.38;4958036;28;1093;-51
2024/01/16 07:48:26;;;;;;;;;;;;;;;16.58;37.70;99757.22;4958010;28;1143;-52
2024/01/16 07:50:52;;;;;;;;;;;;;;;16.27;38.29;99758.97;4957916;28;1061;-51
2024/01/16 07:53:17;;;;;;;;;;;;;;;17.73;35.54;99764.63;4957908;28;1163;-51
2024/01/16 07:55:43;;;;;;;;;;;;;;;17.08;36.54;99784.69;4957394;28;2226;-47
2024/01/16 07:58:11;;;;;;;;;;;;;;;16.40;37.78;99787.06;4952542;28;1311;-51
2024/01/16 08:00:37;;;;;;;;;;;;;;;16.24;38.41;99804.34;4954492;29;1089;-49
2024/01/16 08:03:03;;;;;;;;;;;;;;;17.70;35.71;99799.50;4960508;29;1085;-51
2024/01/16 08:05:30;;;;;;;;;;;;;;;17.12;36.48;99799.38;4961784;28;1084;-48
2024/01/16 08:07:58;;;;;;;;;;;;;;;16.48;37.43;99794.38;4961720;28;1136;-49
2024/01/16 08:10:24;;;;;;;;;;;;;;;16.30;38.09;99807.44;4955606;28;1126;-49
2024/01/16 08:12:50;;;;;;;;;;;;;;;17.65;35.59;99823.84;4959049;29;1142;-45
2024/01/16 08:15:15;;;;;;;;;;;;;;;17.25;36.14;99831.84;4959221;28;1165;-50
2024/01/16 08:17:41;;;;;;;;;;;;;;;16.54;37.13;99844.25;4951619;28;2003;-48
2024/01/16 08:20:09;;;;;;;;;;;;;;;16.19;38.53;99850.81;4957736;29;1070;-51
2024/01/16 08:22:35;;;;;;;;;;;;;;;17.24;36.21;99856.75;4954990;28;1163;-45
2024/01/16 08:25:01;;;;;;;;;;;;;;;17.41;35.61;99867.69;4958588;28;1163;-49
2024/01/16 08:27:28;;;;;;;;;;;;;;;16.60;37.12;99878.25;4948322;29;1402;-48
2024/01/16 08:29:54;;;;;;;;;;;;;;;16.24;37.96;99878.66;4949938;28;1433;-50
2024/01/16 08:32:19;;;;;;;;;;;;;;;17.60;35.44;99893.41;4958185;28;1180;-50
2024/01/16 08:34:45;;;;;;;;;;;;;;;17.01;36.49;99896.84;4957291;28;1092;-50
2024/01/16 08:37:10;;;;;;;;;;;;;;;16.43;37.68;99914.22;4954218;29;1902;-50
2024/01/16 08:39:36;;;;;;;;;;;;;;;16.49;37.77;99903.09;4944375;29;1112;-50
2024/01/16 08:42:03;;;;;;;;;;;;;;;17.84;35.11;99917.91;4960612;28;1049;-48
2024/01/16 08:44:29;;;;;;;;;;;;;;;17.02;36.47;99914.44;4960710;28;1182;-46
2024/01/16 08:46:54;;;;;;;;;;;;;;;16.49;37.28;99924.31;4955189;28;1167;-51
2024/01/16 08:49:20;;;;;;;;;;;;;;;16.13;38.21;99926.50;4957547;28;1238;-51
2024/01/16 08:51:45;;;;;;;;;;;;;;;17.52;36.00;99929.69;4948028;28;1216;-46
2024/01/16 08:54:11;;;;;;;;;;;;;;;17.51;35.69;99934.16;4958253;28;1245;-48
2024/01/16 08:56:37;;;;;;;;;;;;;;;16.60;37.42;99947.28;4956670;28;1899;-42
2024/01/16 08:59:03;;;;;;;;;;;;;;;16.63;37.76;99947.00;4951646;28;1130;-47
2024/01/16 09:01:28;;;;;;;;;;;;;;;17.90;35.06;99943.94;4960494;28;1065;-43
2024/01/16 09:03:54;;;;;;;;;;;;;;;17.22;36.29;99940.25;4960383;28;1137;-48
2024/01/16 09:06:19;;;;;;;;;;;;;;;16.56;37.74;99945.03;4960718;28;1030;-50
2024/01/16 09:08:45;;;;;;;;;;;;;;;16.18;38.38;99934.06;4960783;28;1243;-46
2024/01/16 09:11:11;;;;;;;;;;;;;;;17.42;36.23;99942.94;4960186;28;1166;-49
2024/01/16 09:13:37;;;;;;;;;;;;;;;17.48;35.58;99937.09;4959072;28;1148;-43
2024/01/16 09:16:03;;;;;;;;;;;;;;;16.62;37.23;99940.03;4949113;29;1968;-45
2024/01/16 09:18:28;;;;;;;;;;;;;;;16.25;38.17;99948.47;4959992;28;1097;-48
2024/01/16 09:20:54;;;;;;;;;;;;;;;16.44;37.69;99950.41;4960372;28;1025;-50
2024/01/16 09:23:20;;;;;;;;;;;;;;;17.84;35.14;99949.84;4955147;28;1335;-49
2024/01/16 09:25:46;;;;;;;;;;;;;;;17.29;36.08;99961.81;4954015;29;1134;-48
2024/01/16 09:28:12;;;;;;;;;;;;;;;16.55;37.44;99973.38;4957383;28;1314;-48
2024/01/16 09:30:37;;;;;;;;;;;;;;;16.20;38.12;99970.09;4946951;29;1268;-48
2024/01/16 09:33:06;;;;;;;;;;;;;;;17.09;36.67;99972.41;4956582;28;1135;-45
2024/01/16 09:35:32;;;;;;;;;;;;;;;17.95;34.85;99984.28;4953586;28;1359;-46
2024/01/16 09:37:59;;;;;;;;;;;;;;;16.87;36.90;99984.84;4959934;28;1906;-48
2024/01/16 09:40:25;;;;;;;;;;;;;;;16.37;37.59;99986.41;4955038;28;1185;-49
2024/01/16 09:42:50;;;;;;;;;;;;;;;16.16;38.21;99995.22;4950420;29;1265;-45
2024/01/16 09:45:19;;;;;;;;;;;;;;;17.40;35.89;99995.44;4959046;28;1153;-47
2024/01/16 09:47:44;;;;;;;;;;;;;;;17.98;34.74;99991.97;4959730;28;1111;-50
2024/01/16 09:50:10;;;;;;;;;;;;;;;16.90;36.40;100003.19;4959668;28;1207;-51
2024/01/16 09:52:36;;;;;;;;;;;;;;;16.39;37.71;99998.59;4958598;29;1131;-49
2024/01/16 09:55:01;;;;;;;;;;;;;;;16.09;38.16;99994.03;4946316;28;1014;-47
2024/01/16 09:57:27;;;;;;;;;;;;;;;16.99;36.71;100006.88;4959798;28;1988;-48
2024/01/16 09:59:52;;;;;;;;;;;;;;;17.82;35.09;100010.31;4957918;29;1235;-45
2024/01/16 10:02:18;;;;;;;;;;;;;;;16.79;36.72;100016.56;4959571;28;1159;-49
2024/01/16 10:04:44;;;;;;;;;;;;;;;16.30;37.97;100035.69;4956099;28;1029;-50
2024/01/16 10:07:10;;;;;;;;;;;;;;;16.13;38.46;100033.44;4949191;29;1142;-46
2024/01/16 10:09:35;;;;;;;;;;;;;;;17.53;35.76;100038.59;4958806;28;1095;-49
2024/01/16 10:12:02;;;;;;;;;;;;;;;17.42;35.52;100038.66;4958493;28;838;-46
2024/01/16 10:14:28;;;;;;;;;;;;;;;16.62;37.02;100043.59;4959424;28;1151;-46
2024/01/16 10:17:05;;;;;;;;;;;;;;;16.27;37.69;100032.31;4959410;28;1977;-48
2024/01/16 10:19:31;;;;;;;;;;;;;;;17.50;35.53;100045.00;4959142;28;1085;-49
2024/01/16 10:22:08;;;;;;;;;;;;;;;17.65;35.10;100054.41;4958775;28;1080;-48
2024/01/16 10:24:35;;;;;;;;;;;;;;;16.88;36.68;100047.66;4949463;28;1129;-49
2024/01/16 10:27:02;;;;;;;;;;;;;;;16.36;37.45;100051.94;4945989;28;1188;-51
2024/01/16 10:29:28;;;;;;;;;;;;;;;16.04;38.61;100058.09;4958579;29;1128;-50
2024/01/16 10:31:53;;;;;;;;;;;;;;;17.33;36.03;100059.75;4959619;28;1100;-51
2024/01/16 10:34:20;;;;;;;;;;;;;;;18.03;34.75;100054.63;4959059;28;1250;-49
2024/01/16 10:36:46;;;;;;;;;;;;;;;16.93;36.59;100060.53;4951454;28;1914;-51
2024/01/16 10:39:12;;;;;;;;;;;;;;;16.44;37.57;100053.94;4957808;28;1052;-50
2024/01/16 10:41:37;;;;;;;;;;;;;;;16.12;38.07;100060.97;4972915;28;1339;-50
2024/01/16 10:44:03;;;;;;;;;;;;;;;16.86;37.14;100062.88;4958854;28;1273;-49
2024/01/16 10:46:29;;;;;;;;;;;;;;;18.02;34.83;100067.06;4959179;28;1396;-45
2024/01/16 10:49:04;;;;;;;;;;;;;;;17.12;36.07;100079.28;4957004;28;1241;-52
2024/01/16 10:51:30;;;;;;;;;;;;;;;16.43;37.63;100073.50;4956469;28;1405;-48
2024/01/16 10:53:59;;;;;;;;;;;;;;;16.21;37.91;100074.44;4947723;29;1152;-50
2024/01/16 10:56:25;;;;;;;;;;;;;;;17.22;36.13;100068.69;4958375;28;1906;-48
2024/01/16 10:58:55;;;;;;;;;;;;;;;17.60;35.35;100068.97;4958150;28;1390;-42
2024/01/16 11:01:20;;;;;;;;;;;;;;;16.67;37.31;100079.53;4947948;29;1120;-47
2024/01/16 11:03:49;;;;;;;;;;;;;;;16.28;38.05;100080.94;4941038;29;1461;-52
2024/01/16 11:06:16;;;;;;;;;;;;;;;16.45;37.77;100095.44;4954625;28;1090;-47
2024/01/16 11:08:41;;;;;;;;;;;;;;;17.81;35.09;100084.00;4949102;28;1146;-49
2024/01/16 11:11:07;;;;;;;;;;;;;;;17.37;35.59;100089.59;4947331;29;1678;-47
2024/01/16 11:13:36;;;;;;;;;;;;;;;16.63;37.00;100109.00;4957859;28;1074;-53
2024/01/16 11:16:05;;;;;;;;;;;;;;;16.26;38.09;100096.13;4940815;28;1971;-51
2024/01/16 11:18:31;;;;;;;;;;;;;;;16.19;38.02;100108.22;4950998;29;1093;-50
2024/01/16 11:20:57;;;;;;;;;;;;;;;17.69;35.35;100096.56;4957556;28;1310;-49
2024/01/16 11:23:23;;;;;;;;;;;;;;;17.58;35.21;100094.84;4957590;28;1334;-50
2024/01/16 11:25:49;;;;;;;;;;;;;;;17.92;34.97;100109.63;4958208;28;1132;-49
2024/01/16 11:28:15;;;;;;;;;;;;;;;18.84;33.41;100105.91;4957853;29;1159;-49
2024/01/16 11:30:42;;;;;;;;;;;;;;;17.71;35.20;100123.88;4957936;28;1057;-48
2024/01/16 11:33:26;;;;;;;;;;;;;;;17.01;36.50;100122.69;4958867;28;1130;-46
2024/01/16 11:35:52;;;;;;;;;;;;;;;16.54;37.53;100136.31;4960742;28;1910;-54
2024/01/16 11:38:19;;;;;;;;;;;;;;;16.36;37.67;100144.84;4962184;28;1072;-51
2024/01/16 11:40:45;;;;;;;;;;;;;;;16.81;36.96;100137.66;4961765;28;1187;-54
2024/01/16 11:43:29;;;;;;;;;;;;;;;18.03;34.87;100134.47;4961639;28;1149;-49
2024/01/16 11:45:55;;;;;;;;;;;;;;;17.13;36.23;100142.06;4959606;28;1001;-51
2024/01/16 11:48:21;;;;;;;;;;;;;;;16.76;37.02;100158.44;4951193;28;1318;-55
2024/01/16 11:50:46;;;;;;;;;;;;;;;16.41;37.75;100163.06;4952585;28;1149;-46
2024/01/16 11:53:30;;;;;;;;;;;;;;;16.14;37.94;100162.53;4955823;29;1197;-47
2024/01/16 11:56:14;;;;;;;;;;;;;;;16.24;38.22;100175.88;4954140;29;1906;-45
2024/01/16 11:58:59;;;;;;;;;;;;;;;17.55;35.42;100166.09;4950192;29;1041;-52
2024/01/16 12:01:25;;;;;;;;;;;;;;;16.95;36.88;100176.34;4950214;29;1430;-51
2024/01/16 12:04:06;;;;;;;;;;;;;;;16.25;38.04;100177.56;4959561;28;1314;-44
2024/01/16 12:06:33;;;;;;;;;;;;;;;15.97;38.54;100182.41;4950997;29;1127;-51
2024/01/16 12:09:14;;;;;;;;;;;;;;;15.75;38.95;100176.13;4948582;28;1127;-52
2024/01/16 12:11:40;;;;;;;;;;;;;;;16.74;37.30;100186.94;4961085;28;1136;-51
2024/01/16 12:14:06;;;;;;;;;;;;;;;17.20;35.89;100186.75;4948908;28;1220;-48
2024/01/16 12:16:31;;;;;;;;;;;;;;;16.86;37.75;100185.09;4960384;28;1894;-47
2024/01/16 12:19:07;;;;;;;;;;;;;;;16.19;38.11;100177.22;4961024;28;1109;-50
2024/01/16 12:21:40;;;;;;;;;;;;;;;15.80;39.14;100181.06;4960805;28;1143;-46
2024/01/16 12:24:05;;;;;;;;;;;;;;;15.65;39.05;100183.13;4960706;28;1057;-48
2024/01/16 12:26:31;;;;;;;;;;;;;;;16.00;38.80;100181.34;4960865;28;1072;-49
2024/01/16 12:28:57;;;;;;;;;;;;;;;17.31;36.02;100192.00;4947750;29;1161;-53
2024/01/16 12:31:24;;;;;;;;;;;;;;;16.49;37.32;100196.94;4960307;28;1246;-54
2024/01/16 12:33:50;;;;;;;;;;;;;;;16.00;38.33;100205.22;4958693;29;1156;-49
2024/01/16 12:36:16;;;;;;;;;;;;;;;15.77;38.80;100227.25;4960095;28;1902;-54
2024/01/16 12:38:41;;;;;;;;;;;;;;;15.54;39.12;100232.53;4960104;28;1113;-48
2024/01/16 12:41:08;;;;;;;;;;;;;;;16.67;37.35;100225.59;4959459;29;1275;-49
2024/01/16 12:43:33;;;;;;;;;;;;;;;17.42;35.69;100238.94;4962530;28;1311;-50
2024/01/16 12:45:59;;;;;;;;;;;;;;;16.47;37.20;100254.59;4958971;29;1164;-48
2024/01/16 12:48:25;;;;;;;;;;;;;;;16.00;38.54;100250.31;4952408;28;1247;-53
2024/01/16 12:50:50;;;;;;;;;;;;;;;15.73;38.70;100252.31;4960171;28;1459;-51